createdAt,value
2018-06-18T00:00:43.621Z,76.29
2018-06-18T00:01:43.629Z,76.57
2018-06-18T00:02:43.651Z,76.29
2018-06-18T00:03:43.671Z,76.48
2018-06-18T00:04:43.696Z,77.06
2018-06-18T00:05:43.715Z,78.36
2018-06-18T00:06:43.744Z,79.51
2018-06-18T00:07:43.761Z,79.41
2018-06-18T00:08:43.779Z,79.89
2018-06-18T00:09:43.796Z,81.29
2018-06-18T00:10:43.831Z,81.38
2018-06-18T00:11:43.828Z,81.13
2018-06-18T00:12:43.866Z,80.18
2018-06-18T00:13:43.879Z,80.66
2018-06-18T00:14:43.888Z,80.76
2018-06-18T00:15:43.914Z,80.47
2018-06-18T00:16:43.932Z,80.71
2018-06-18T00:17:43.959Z,80.76
2018-06-18T00:18:43.981Z,80.27
2018-06-18T00:19:43.991Z,79.45
2018-06-18T00:20:44.016Z,79.80
2018-06-18T00:21:44.046Z,79.89
2018-06-18T00:22:44.054Z,79.22
2018-06-18T00:23:44.091Z,78.69
2018-06-18T00:24:44.104Z,78.88
2018-06-18T00:25:44.112Z,79.16
2018-06-18T00:26:44.137Z,78.20
2018-06-18T00:27:44.173Z,78.11
2018-06-18T00:28:44.169Z,76.42
2018-06-18T00:29:44.193Z,76.52
2018-06-18T00:30:44.219Z,76.42
2018-06-18T00:31:44.238Z,75.85
2018-06-18T00:32:44.262Z,76.14
2018-06-18T00:33:44.274Z,77.06
2018-06-18T00:34:44.289Z,78.20
2018-06-18T00:35:44.326Z,77.09
2018-06-18T00:36:44.336Z,77.73
2018-06-18T00:37:44.366Z,78.78
2018-06-18T00:38:44.381Z,79.45
2018-06-18T00:39:44.397Z,78.59
2018-06-18T00:40:44.446Z,80.22
2018-06-18T00:41:44.459Z,79.74
2018-06-18T00:42:44.495Z,78.78
2018-06-18T00:43:44.486Z,79.36
2018-06-18T00:44:44.500Z,79.36
2018-06-18T00:45:44.524Z,79.26
2018-06-18T00:46:44.538Z,80.37
2018-06-18T00:47:44.554Z,80.66
2018-06-18T00:48:44.575Z,79.16
2018-06-18T00:49:44.601Z,78.53
2018-06-18T00:50:44.612Z,77.95
2018-06-18T00:51:44.639Z,77.38
2018-06-18T00:52:44.653Z,76.81
2018-06-18T00:53:44.703Z,76.17
2018-06-18T00:54:44.690Z,76.17
2018-06-18T00:55:44.725Z,75.75
2018-06-18T00:56:44.733Z,76.07
2018-06-18T00:57:44.763Z,75.85
2018-06-18T00:58:44.796Z,76.04
2018-06-18T00:59:44.789Z,75.95
2018-06-18T01:00:44.851Z,77.44
2018-06-18T01:01:44.833Z,78.11
2018-06-18T01:02:44.857Z,79.45
2018-06-18T01:03:44.877Z,80.12
2018-06-18T01:04:44.896Z,80.41
2018-06-18T01:05:44.932Z,80.03
2018-06-18T01:06:44.937Z,80.60
2018-06-18T01:07:44.972Z,80.51
2018-06-18T01:08:44.974Z,80.41
2018-06-18T01:09:44.993Z,80.79
2018-06-18T01:10:45.043Z,80.22
2018-06-18T01:11:45.037Z,80.41
2018-06-18T01:12:45.062Z,80.22
2018-06-18T01:13:45.082Z,80.22
2018-06-18T01:14:45.097Z,80.79
2018-06-18T01:15:45.120Z,80.32
2018-06-18T01:16:45.136Z,80.03
2018-06-18T01:17:45.160Z,79.83
2018-06-18T01:18:45.177Z,79.36
2018-06-18T01:19:45.204Z,80.32
2018-06-18T01:20:45.225Z,80.32
2018-06-18T01:21:45.246Z,80.12
2018-06-18T01:22:45.256Z,80.27
2018-06-18T01:23:45.283Z,81.33
2018-06-18T01:24:45.298Z,81.33
2018-06-18T01:25:45.315Z,80.32
2018-06-18T01:26:45.362Z,80.03
2018-06-18T01:27:45.378Z,79.49
2018-06-18T01:28:45.387Z,79.45
2018-06-18T01:29:45.404Z,80.70
2018-06-18T01:30:45.424Z,81.04
2018-06-18T01:31:45.442Z,81.90
2018-06-18T01:32:45.468Z,82.19
2018-06-18T01:33:45.483Z,82.42
2018-06-18T01:34:45.508Z,81.37
2018-06-18T01:35:45.526Z,81.27
2018-06-18T01:36:45.557Z,80.16
2018-06-18T01:37:45.562Z,79.21
2018-06-18T01:38:45.647Z,79.49
2018-06-18T01:39:45.610Z,80.26
2018-06-18T01:40:45.618Z,80.35
2018-06-18T01:41:45.648Z,80.70
2018-06-18T01:42:45.665Z,80.51
2018-06-18T01:43:45.685Z,80.22
2018-06-18T01:44:45.703Z,80.79
2018-06-18T01:45:45.718Z,81.18
2018-06-18T01:46:45.740Z,81.08
2018-06-18T01:47:45.770Z,81.41
2018-06-18T01:48:45.817Z,80.79
2018-06-18T01:49:45.802Z,81.46
2018-06-18T01:50:45.829Z,81.66
2018-06-18T01:51:45.868Z,81.56
2018-06-18T01:52:45.875Z,81.22
2018-06-18T01:53:45.902Z,81.08
2018-06-18T01:54:45.907Z,82.04
2018-06-18T01:55:45.921Z,83.09
2018-06-18T01:56:45.945Z,83.38
2018-06-18T01:57:45.971Z,83.76
2018-06-18T01:58:45.991Z,83.29
2018-06-18T01:59:46.049Z,83.48
2018-06-18T02:00:46.029Z,81.98
2018-06-18T02:01:46.047Z,81.12
2018-06-18T02:02:46.084Z,81.79
2018-06-18T02:03:46.088Z,83.19
2018-06-18T02:04:46.113Z,82.86
2018-06-18T02:05:46.127Z,83.00
2018-06-18T02:06:46.162Z,81.85
2018-06-18T02:07:46.172Z,81.66
2018-06-18T02:08:46.223Z,81.75
2018-06-18T02:09:46.215Z,81.95
2018-06-18T02:10:46.229Z,82.32
2018-06-18T02:11:46.254Z,82.42
2018-06-18T02:12:46.267Z,81.46
2018-06-18T02:13:46.290Z,80.99
2018-06-18T02:14:46.314Z,80.99
2018-06-18T02:15:46.344Z,80.51
2018-06-18T02:16:46.362Z,80.70
2018-06-18T02:17:46.378Z,80.35
2018-06-18T02:18:46.398Z,79.30
2018-06-18T02:19:46.430Z,80.07
2018-06-18T02:20:46.441Z,79.82
2018-06-18T02:21:46.449Z,78.38
2018-06-18T02:22:46.471Z,77.56
2018-06-18T02:23:46.491Z,76.79
2018-06-18T02:24:46.515Z,76.94
2018-06-18T02:25:46.555Z,78.44
2018-06-18T02:26:46.556Z,80.74
2018-06-18T02:27:46.578Z,80.70
2018-06-18T02:28:46.613Z,80.64
2018-06-18T02:29:46.608Z,81.27
2018-06-18T02:30:46.638Z,81.08
2018-06-18T02:31:46.661Z,81.27
2018-06-18T02:32:46.700Z,81.75
2018-06-18T02:33:46.700Z,82.90
2018-06-18T02:34:46.713Z,84.20
2018-06-18T02:35:46.747Z,84.49
2018-06-18T02:36:46.762Z,84.78
2018-06-18T02:37:46.773Z,85.74
2018-06-18T02:38:46.791Z,84.44
2018-06-18T02:39:46.833Z,83.76
2018-06-18T02:40:46.859Z,81.95
2018-06-18T02:41:46.856Z,82.42
2018-06-18T02:42:46.890Z,83.09
2018-06-18T02:43:46.893Z,83.00
2018-06-18T02:44:46.910Z,82.27
2018-06-18T02:45:46.945Z,82.23
2018-06-18T02:46:46.955Z,82.14
2018-06-18T02:47:46.984Z,82.32
2018-06-18T02:48:47.003Z,82.23
2018-06-18T02:49:47.015Z,82.42
2018-06-18T02:50:47.044Z,83.58
2018-06-18T02:51:47.060Z,83.19
2018-06-18T02:52:47.081Z,83.14
2018-06-18T02:53:47.106Z,81.95
2018-06-18T02:54:47.133Z,82.18
2018-06-18T02:55:47.143Z,82.32
2018-06-18T02:56:47.154Z,81.85
2018-06-18T02:57:47.175Z,83.00
2018-06-18T02:58:47.192Z,83.09
2018-06-18T02:59:47.228Z,82.42
2018-06-18T03:00:47.260Z,82.32
2018-06-18T03:01:47.282Z,80.45
2018-06-18T03:02:47.278Z,79.91
2018-06-18T03:03:47.300Z,81.02
2018-06-18T03:04:47.343Z,80.40
2018-06-18T03:05:47.334Z,79.68
2018-06-18T03:06:47.360Z,79.11
2018-06-18T03:07:47.379Z,79.97
2018-06-18T03:08:47.402Z,79.49
2018-06-18T03:09:47.430Z,79.49
2018-06-18T03:10:47.438Z,80.64
2018-06-18T03:11:47.510Z,80.55
2018-06-18T03:12:47.482Z,82.14
2018-06-18T03:13:47.497Z,81.85
2018-06-18T03:14:47.528Z,81.89
2018-06-18T03:15:47.554Z,80.74
2018-06-18T03:16:47.554Z,80.01
2018-06-18T03:17:47.578Z,79.34
2018-06-18T03:18:47.602Z,79.24
2018-06-18T03:19:47.616Z,80.55
2018-06-18T03:20:47.648Z,81.41
2018-06-18T03:21:47.660Z,81.51
2018-06-18T03:22:47.677Z,80.35
2018-06-18T03:23:47.717Z,80.40
2018-06-18T03:24:47.754Z,79.44
2018-06-18T03:25:47.734Z,78.77
2018-06-18T03:26:47.760Z,79.05
2018-06-18T03:27:47.797Z,78.86
2018-06-18T03:28:47.800Z,80.07
2018-06-18T03:29:47.819Z,80.45
2018-06-18T03:30:47.849Z,80.64
2018-06-18T03:31:47.863Z,81.31
2018-06-18T03:32:47.882Z,80.74
2018-06-18T03:33:47.898Z,80.93
2018-06-18T03:34:47.918Z,82.27
2018-06-18T03:35:47.937Z,81.70
2018-06-18T03:36:47.958Z,81.75
2018-06-18T03:37:47.980Z,81.51
2018-06-18T03:38:48.002Z,80.55
2018-06-18T03:39:48.029Z,80.74
2018-06-18T03:40:48.048Z,81.02
2018-06-18T03:41:48.064Z,80.35
2018-06-18T03:42:48.083Z,80.35
2018-06-18T03:43:48.103Z,80.45
2018-06-18T03:44:48.129Z,81.02
2018-06-18T03:45:48.141Z,81.41
2018-06-18T03:46:48.159Z,81.60
2018-06-18T03:47:48.186Z,80.74
2018-06-18T03:48:48.204Z,80.45
2018-06-18T03:49:48.229Z,80.64
2018-06-18T03:50:48.261Z,80.64
2018-06-18T03:51:48.262Z,81.31
2018-06-18T03:52:48.295Z,80.83
2018-06-18T03:53:48.306Z,80.40
2018-06-18T03:54:48.336Z,81.31
2018-06-18T03:55:48.350Z,81.26
2018-06-18T03:56:48.363Z,81.41
2018-06-18T03:57:48.387Z,82.27
2018-06-18T03:58:48.401Z,81.60
2018-06-18T03:59:48.450Z,81.45
2018-06-18T04:00:48.473Z,79.91
2018-06-18T04:01:48.498Z,79.91
2018-06-18T04:02:48.481Z,79.91
2018-06-18T04:03:48.509Z,80.01
2018-06-18T04:04:48.525Z,79.05
2018-06-18T04:05:48.549Z,78.42
2018-06-18T04:06:48.580Z,76.40
2018-06-18T04:07:48.611Z,75.54
2018-06-18T04:08:48.618Z,74.33
2018-06-18T04:09:48.644Z,74.23
2018-06-18T04:10:48.647Z,73.94
2018-06-18T04:11:48.684Z,73.94
2018-06-18T04:12:48.691Z,74.71
2018-06-18T04:13:48.721Z,75.10
2018-06-18T04:14:48.733Z,74.81
2018-06-18T04:15:48.757Z,75.87
2018-06-18T04:16:48.776Z,76.02
2018-06-18T04:17:48.796Z,77.23
2018-06-18T04:18:48.816Z,78.96
2018-06-18T04:19:48.849Z,78.38
2018-06-18T04:20:48.853Z,78.38
2018-06-18T04:21:48.874Z,78.38
2018-06-18T04:22:48.912Z,78.57
2018-06-18T04:23:48.918Z,78.09
2018-06-18T04:24:49.011Z,78.52
2018-06-18T04:25:48.960Z,78.03
2018-06-18T04:26:48.981Z,76.50
2018-06-18T04:27:48.996Z,76.40
2018-06-18T04:28:49.021Z,76.64
2018-06-18T04:29:49.037Z,75.48
2018-06-18T04:30:49.057Z,75.87
2018-06-18T04:31:49.079Z,76.15
2018-06-18T04:32:49.102Z,75.77
2018-06-18T04:33:49.141Z,75.67
2018-06-18T04:34:49.152Z,75.38
2018-06-18T04:35:49.215Z,75.77
2018-06-18T04:36:49.189Z,75.87
2018-06-18T04:37:49.227Z,75.23
2018-06-18T04:38:49.226Z,74.65
2018-06-18T04:39:49.243Z,74.02
2018-06-18T04:40:49.282Z,73.73
2018-06-18T04:41:49.290Z,72.86
2018-06-18T04:42:49.318Z,71.52
2018-06-18T04:43:49.323Z,70.75
2018-06-18T04:44:49.404Z,70.59
2018-06-18T04:45:49.381Z,70.78
2018-06-18T04:46:49.391Z,69.63
2018-06-18T04:47:49.425Z,69.98
2018-06-18T04:48:49.467Z,70.50
2018-06-18T04:49:49.459Z,69.73
2018-06-18T04:50:49.480Z,69.24
2018-06-18T04:51:49.507Z,68.51
2018-06-18T04:52:49.520Z,67.61
2018-06-18T04:53:49.545Z,68.38
2018-06-18T04:54:49.557Z,68.76
2018-06-18T04:55:49.578Z,69.34
2018-06-18T04:56:49.604Z,68.13
2018-06-18T04:57:49.626Z,68.22
2018-06-18T04:58:49.652Z,68.86
2018-06-18T04:59:49.672Z,68.32
2018-06-18T05:00:49.694Z,66.97
2018-06-18T05:01:49.720Z,67.93
2018-06-18T05:02:49.731Z,67.39
2018-06-18T05:03:49.766Z,66.81
2018-06-18T05:04:49.769Z,67.07
2018-06-18T05:05:49.816Z,67.45
2018-06-18T05:06:49.825Z,67.61
2018-06-18T05:07:49.846Z,67.99
2018-06-18T05:08:49.861Z,67.55
2018-06-18T05:09:49.880Z,67.35
2018-06-18T05:10:49.904Z,66.68
2018-06-18T05:11:49.932Z,66.04
2018-06-18T05:12:50.012Z,66.30
2018-06-18T05:13:49.967Z,66.33
2018-06-18T05:14:50.003Z,66.33
2018-06-18T05:15:50.013Z,65.37
2018-06-18T05:16:50.038Z,65.59
2018-06-18T05:17:50.066Z,65.11
2018-06-18T05:18:50.084Z,64.25
2018-06-18T05:19:50.109Z,64.25
2018-06-18T05:20:50.123Z,64.43
2018-06-18T05:21:50.145Z,64.98
2018-06-18T05:22:50.159Z,65.66
2018-06-18T05:23:50.185Z,65.66
2018-06-18T05:24:50.210Z,65.43
2018-06-18T05:25:50.230Z,65.56
2018-06-18T05:26:50.258Z,65.37
2018-06-18T05:27:50.275Z,66.49
2018-06-18T05:28:50.321Z,67.10
2018-06-18T05:29:50.317Z,65.66
2018-06-18T05:30:50.343Z,65.66
2018-06-18T05:31:50.375Z,65.56
2018-06-18T05:32:50.377Z,64.73
2018-06-18T05:33:50.406Z,64.18
2018-06-18T05:34:50.427Z,64.18
2018-06-18T05:35:50.451Z,64.18
2018-06-18T05:36:50.475Z,64.98
2018-06-18T05:37:50.501Z,64.89
2018-06-18T05:38:50.517Z,63.92
2018-06-18T05:39:50.534Z,64.25
2018-06-18T05:40:50.556Z,64.15
2018-06-18T05:41:50.573Z,63.85
2018-06-18T05:42:50.606Z,63.60
2018-06-18T05:43:50.636Z,63.12
2018-06-18T05:44:50.644Z,62.70
2018-06-18T05:45:50.661Z,63.12
2018-06-18T05:46:50.702Z,62.15
2018-06-18T05:47:50.719Z,62.54
2018-06-18T05:48:50.753Z,62.28
2018-06-18T05:49:50.752Z,61.35
2018-06-18T05:50:50.775Z,60.77
2018-06-18T05:51:50.800Z,60.58
2018-06-18T05:52:50.821Z,59.52
2018-06-18T05:53:50.860Z,61.13
2018-06-18T05:54:50.865Z,61.44
2018-06-18T05:55:50.883Z,60.58
2018-06-18T05:56:50.917Z,60.58
2018-06-18T05:57:50.932Z,60.96
2018-06-18T05:58:50.957Z,59.23
2018-06-18T05:59:50.978Z,59.71
2018-06-18T06:00:50.998Z,60.03
2018-06-18T06:01:51.023Z,60.77
2018-06-18T06:02:51.046Z,60.13
2018-06-18T06:03:51.064Z,59.55
2018-06-18T06:04:51.089Z,59.83
2018-06-18T06:05:51.113Z,58.68
2018-06-18T06:06:51.133Z,58.70
2018-06-18T06:07:51.188Z,58.03
2018-06-18T06:08:51.197Z,57.26
2018-06-18T06:09:51.204Z,57.74
2018-06-18T06:10:51.231Z,58.10
2018-06-18T06:11:51.252Z,57.54
2018-06-18T06:12:51.297Z,57.45
2018-06-18T06:13:51.292Z,57.90
2018-06-18T06:14:51.314Z,58.07
2018-06-18T06:15:51.338Z,58.94
2018-06-18T06:16:51.389Z,59.06
2018-06-18T06:17:51.394Z,59.97
2018-06-18T06:18:51.403Z,60.00
2018-06-18T06:19:51.427Z,59.03
2018-06-18T06:20:51.453Z,58.55
2018-06-18T06:21:51.477Z,58.65
2018-06-18T06:22:51.495Z,58.84
2018-06-18T06:23:51.520Z,59.30
2018-06-18T06:24:51.549Z,59.20
2018-06-18T06:25:51.574Z,59.10
2018-06-18T06:26:51.583Z,59.68
2018-06-18T06:27:51.612Z,60.13
2018-06-18T06:28:51.630Z,60.83
2018-06-18T06:29:51.650Z,60.55
2018-06-18T06:30:51.681Z,60.26
2018-06-18T06:31:51.705Z,61.32
2018-06-18T06:32:51.733Z,61.03
2018-06-18T06:33:51.745Z,60.71
2018-06-18T06:34:51.766Z,60.80
2018-06-18T06:35:51.818Z,61.58
2018-06-18T06:36:51.804Z,62.22
2018-06-18T06:37:51.832Z,63.18
2018-06-18T06:38:51.849Z,62.80
2018-06-18T06:39:51.882Z,63.18
2018-06-18T06:40:51.902Z,63.28
2018-06-18T06:41:51.924Z,63.28
2018-06-18T06:42:51.948Z,63.89
2018-06-18T06:43:51.963Z,64.02
2018-06-18T06:44:51.982Z,63.67
2018-06-18T06:45:52.020Z,63.44
2018-06-18T06:46:52.033Z,63.92
2018-06-18T06:47:52.072Z,64.53
2018-06-18T06:48:52.129Z,64.12
2018-06-18T06:49:52.102Z,64.15
2018-06-18T06:50:52.125Z,63.67
2018-06-18T06:51:52.136Z,63.57
2018-06-18T06:52:52.164Z,63.60
2018-06-18T06:53:52.184Z,62.73
2018-06-18T06:54:52.217Z,61.61
2018-06-18T06:55:52.298Z,61.22
2018-06-18T06:56:52.257Z,62.54
2018-06-18T06:57:52.279Z,61.51
2018-06-18T06:58:52.297Z,62.54
2018-06-18T06:59:52.317Z,63.31
2018-06-18T07:00:52.337Z,62.54
2018-06-18T07:01:52.363Z,63.12
2018-06-18T07:02:52.380Z,63.02
2018-06-18T07:03:52.422Z,63.12
2018-06-18T07:04:52.425Z,63.31
2018-06-18T07:05:52.452Z,63.18
2018-06-18T07:06:52.469Z,62.83
2018-06-18T07:07:52.501Z,62.63
2018-06-18T07:08:52.515Z,62.35
2018-06-18T07:09:52.537Z,62.93
2018-06-18T07:10:52.583Z,62.54
2018-06-18T07:11:52.601Z,63.15
2018-06-18T07:12:52.611Z,62.63
2018-06-18T07:13:52.629Z,62.86
2018-06-18T07:14:52.647Z,62.63
2018-06-18T07:15:52.669Z,63.15
2018-06-18T07:16:52.702Z,63.15
2018-06-18T07:17:52.718Z,62.93
2018-06-18T07:18:52.744Z,64.28
2018-06-18T07:19:52.780Z,63.15
2018-06-18T07:20:52.796Z,63.06
2018-06-18T07:21:52.803Z,62.51
2018-06-18T07:22:52.831Z,62.99
2018-06-18T07:23:52.870Z,62.76
2018-06-18T07:24:52.875Z,64.21
2018-06-18T07:25:52.917Z,64.86
2018-06-18T07:26:52.915Z,65.33
2018-06-18T07:27:52.939Z,66.20
2018-06-18T07:28:52.963Z,65.43
2018-06-18T07:29:52.983Z,65.33
2018-06-18T07:30:53.039Z,65.63
2018-06-18T07:31:53.049Z,65.63
2018-06-18T07:32:53.050Z,65.17
2018-06-18T07:33:53.073Z,64.43
2018-06-18T07:34:53.097Z,63.95
2018-06-18T07:35:53.125Z,63.18
2018-06-18T07:36:53.151Z,62.92
2018-06-18T07:37:53.167Z,62.54
2018-06-18T07:38:53.181Z,61.77
2018-06-18T07:39:53.221Z,61.67
2018-06-18T07:40:53.228Z,61.38
2018-06-18T07:41:53.256Z,61.67
2018-06-18T07:42:53.273Z,61.74
2018-06-18T07:43:53.329Z,62.76
2018-06-18T07:44:53.320Z,63.54
2018-06-18T07:45:53.351Z,62.82
2018-06-18T07:46:53.362Z,62.44
2018-06-18T07:47:53.397Z,61.67
2018-06-18T07:48:53.408Z,62.41
2018-06-18T07:49:53.449Z,61.57
2018-06-18T07:50:53.453Z,61.35
2018-06-18T07:51:53.487Z,62.60
2018-06-18T07:52:53.502Z,63.37
2018-06-18T07:53:53.521Z,62.89
2018-06-18T07:54:53.549Z,62.79
2018-06-18T07:55:53.573Z,62.92
2018-06-18T07:56:53.627Z,62.63
2018-06-18T07:57:53.613Z,61.57
2018-06-18T07:58:53.649Z,61.70
2018-06-18T07:59:53.664Z,61.41
2018-06-18T08:00:53.686Z,61.83
2018-06-18T08:01:53.709Z,62.02
2018-06-18T08:02:53.752Z,60.96
2018-06-18T08:03:53.765Z,61.51
2018-06-18T08:04:53.784Z,61.60
2018-06-18T08:05:53.805Z,61.05
2018-06-18T08:06:53.822Z,60.57
2018-06-18T08:07:53.852Z,60.38
2018-06-18T08:08:53.886Z,60.18
2018-06-18T08:09:53.897Z,60.76
2018-06-18T08:10:53.933Z,60.09
2018-06-18T08:11:53.939Z,60.18
2018-06-18T08:12:53.961Z,59.95
2018-06-18T08:13:53.982Z,59.18
2018-06-18T08:14:54.005Z,58.50
2018-06-18T08:15:54.059Z,58.50
2018-06-18T08:16:54.052Z,56.70
2018-06-18T08:17:54.139Z,57.34
2018-06-18T08:18:54.109Z,57.89
2018-06-18T08:19:54.138Z,59.05
2018-06-18T08:20:54.173Z,57.82
2018-06-18T08:21:54.176Z,56.98
2018-06-18T08:22:54.202Z,56.24
2018-06-18T08:23:54.217Z,55.27
2018-06-18T08:24:54.251Z,54.55
2018-06-18T08:25:54.266Z,54.43
2018-06-18T08:26:54.332Z,55.56
2018-06-18T08:27:54.317Z,56.34
2018-06-18T08:28:54.338Z,56.60
2018-06-18T08:29:54.359Z,56.79
2018-06-18T08:30:54.388Z,55.36
2018-06-18T08:31:54.417Z,55.07
2018-06-18T08:32:54.438Z,55.17
2018-06-18T08:33:54.456Z,54.39
2018-06-18T08:34:54.507Z,55.43
2018-06-18T08:35:54.510Z,56.40
2018-06-18T08:36:54.535Z,56.21
2018-06-18T08:37:54.559Z,57.21
2018-06-18T08:38:54.578Z,56.79
2018-06-18T08:39:54.605Z,56.60
2018-06-18T08:40:54.643Z,56.18
2018-06-18T08:41:54.660Z,56.11
2018-06-18T08:42:54.676Z,57.18
2018-06-18T08:43:54.711Z,56.86
2018-06-18T08:44:54.727Z,56.40
2018-06-18T08:45:54.745Z,56.73
2018-06-18T08:46:54.774Z,58.02
2018-06-18T08:47:54.795Z,59.05
2018-06-18T08:48:54.819Z,57.92
2018-06-18T08:49:54.835Z,56.95
2018-06-18T08:50:54.869Z,58.37
2018-06-18T08:51:54.884Z,58.93
2018-06-18T08:52:54.911Z,57.96
2018-06-18T08:53:54.950Z,58.09
2018-06-18T08:54:54.967Z,59.70
2018-06-18T08:55:54.979Z,60.35
2018-06-18T08:56:55.009Z,60.35
2018-06-18T08:57:55.058Z,59.41
2018-06-18T08:58:55.052Z,58.37
2018-06-18T08:59:55.081Z,59.05
2018-06-18T09:00:55.100Z,58.73
2018-06-18T09:01:55.130Z,58.37
2018-06-18T09:02:55.156Z,58.18
2018-06-18T09:03:55.168Z,57.89
2018-06-18T09:04:55.192Z,58.18
2018-06-18T09:05:55.216Z,57.79
2018-06-18T09:06:55.239Z,57.15
2018-06-18T09:07:55.262Z,57.99
2018-06-18T09:08:55.328Z,58.37
2018-06-18T09:09:55.322Z,57.51
2018-06-18T09:10:55.339Z,57.12
2018-06-18T09:11:55.357Z,56.50
2018-06-18T09:12:55.384Z,56.88
2018-06-18T09:13:55.410Z,56.88
2018-06-18T09:14:55.436Z,57.08
2018-06-18T09:15:55.453Z,56.98
2018-06-18T09:16:55.486Z,57.34
2018-06-18T09:17:55.523Z,57.18
2018-06-18T09:18:55.522Z,57.28
2018-06-18T09:19:55.546Z,57.56
2018-06-18T09:20:55.660Z,57.92
2018-06-18T09:21:55.594Z,58.60
2018-06-18T09:22:55.620Z,57.92
2018-06-18T09:23:55.639Z,58.02
2018-06-18T09:24:55.664Z,57.92
2018-06-18T09:25:55.696Z,57.15
2018-06-18T09:26:55.710Z,57.82
2018-06-18T09:27:55.739Z,57.54
2018-06-18T09:28:55.761Z,58.09
2018-06-18T09:29:55.774Z,57.89
2018-06-18T09:30:55.807Z,58.12
2018-06-18T09:31:55.889Z,57.92
2018-06-18T09:32:55.850Z,58.21
2018-06-18T09:33:55.873Z,57.86
2018-06-18T09:34:55.904Z,57.37
2018-06-18T09:35:55.934Z,57.95
2018-06-18T09:36:55.946Z,56.82
2018-06-18T09:37:55.986Z,56.92
2018-06-18T09:38:56.016Z,57.01
2018-06-18T09:39:56.014Z,56.36
2018-06-18T09:40:56.041Z,55.78
2018-06-18T09:41:56.065Z,55.13
2018-06-18T09:42:56.090Z,54.64
2018-06-18T09:43:56.137Z,54.16
2018-06-18T09:44:56.135Z,54.03
2018-06-18T09:45:56.171Z,55.10
2018-06-18T09:46:56.185Z,54.23
2018-06-18T09:47:56.298Z,55.66
2018-06-18T09:48:56.249Z,56.30
2018-06-18T09:49:56.255Z,57.54
2018-06-18T09:50:56.274Z,57.46
2018-06-18T09:51:56.308Z,56.43
2018-06-18T09:52:56.332Z,56.34
2018-06-18T09:53:56.348Z,56.16
2018-06-18T09:54:56.388Z,56.98
2018-06-18T09:55:56.398Z,56.92
2018-06-18T09:56:56.421Z,56.34
2018-06-18T09:57:56.449Z,56.14
2018-06-18T09:58:56.472Z,56.82
2018-06-18T09:59:56.492Z,57.86
2018-06-18T10:00:56.519Z,57.40
2018-06-18T10:01:56.541Z,56.82
2018-06-18T10:02:56.567Z,56.79
2018-06-18T10:03:56.588Z,56.79
2018-06-18T10:04:56.608Z,57.46
2018-06-18T10:05:56.636Z,57.40
2018-06-18T10:06:56.659Z,55.98
2018-06-18T10:07:56.691Z,55.98
2018-06-18T10:08:56.703Z,56.26
2018-06-18T10:09:56.736Z,56.00
2018-06-18T10:10:56.756Z,54.99
2018-06-18T10:11:56.776Z,54.67
2018-06-18T10:12:56.803Z,55.32
2018-06-18T10:13:56.829Z,56.56
2018-06-18T10:14:56.847Z,56.03
2018-06-18T10:15:56.880Z,54.31
2018-06-18T10:16:56.896Z,54.41
2018-06-18T10:17:56.947Z,53.95
2018-06-18T10:18:56.947Z,53.05
2018-06-18T10:19:56.973Z,52.47
2018-06-18T10:20:56.998Z,52.66
2018-06-18T10:21:57.079Z,52.44
2018-06-18T10:22:57.047Z,52.83
2018-06-18T10:23:57.067Z,52.64
2018-06-18T10:24:57.092Z,52.56
2018-06-18T10:25:57.112Z,53.47
2018-06-18T10:26:57.148Z,51.84
2018-06-18T10:27:57.164Z,52.40
2018-06-18T10:28:57.184Z,51.75
2018-06-18T10:29:57.216Z,51.06
2018-06-18T10:30:57.287Z,51.16
2018-06-18T10:31:57.264Z,50.60
2018-06-18T10:32:57.300Z,50.87
2018-06-18T10:33:57.314Z,50.82
2018-06-18T10:34:57.369Z,49.58
2018-06-18T10:35:57.366Z,49.00
2018-06-18T10:36:57.392Z,49.07
2018-06-18T10:37:57.429Z,49.10
2018-06-18T10:38:57.456Z,48.71
2018-06-18T10:39:57.462Z,48.32
2018-06-18T10:40:57.491Z,49.46
2018-06-18T10:41:57.513Z,50.41
2018-06-18T10:42:57.539Z,51.40
2018-06-18T10:43:57.592Z,51.04
2018-06-18T10:44:57.587Z,50.65
2018-06-18T10:45:57.615Z,51.53
2018-06-18T10:46:57.667Z,52.69
2018-06-18T10:47:57.659Z,52.86
2018-06-18T10:48:57.745Z,52.30
2018-06-18T10:49:57.712Z,50.58
2018-06-18T10:50:57.745Z,52.20
2018-06-18T10:51:57.763Z,52.30
2018-06-18T10:52:57.785Z,51.81
2018-06-18T10:53:57.845Z,51.33
2018-06-18T10:54:57.838Z,51.72
2018-06-18T10:55:57.859Z,50.29
2018-06-18T10:56:57.935Z,50.29
2018-06-18T10:57:57.917Z,50.68
2018-06-18T10:58:57.945Z,50.48
2018-06-18T10:59:57.959Z,51.23
2018-06-18T11:00:57.981Z,51.45
2018-06-18T11:01:58.018Z,51.16
2018-06-18T11:02:58.032Z,50.26
2018-06-18T11:03:58.058Z,51.26
2018-06-18T11:04:58.081Z,51.35
2018-06-18T11:05:58.109Z,51.04
2018-06-18T11:06:58.151Z,50.29
2018-06-18T11:07:58.156Z,50.41
2018-06-18T11:08:58.187Z,50.60
2018-06-18T11:09:58.214Z,50.26
2018-06-18T11:10:58.238Z,50.29
2018-06-18T11:11:58.270Z,50.58
2018-06-18T11:12:58.285Z,51.23
2018-06-18T11:13:58.314Z,50.36
2018-06-18T11:14:58.364Z,51.11
2018-06-18T11:15:58.458Z,51.62
2018-06-18T11:16:58.552Z,51.72
2018-06-18T11:17:58.408Z,51.33
2018-06-18T11:18:58.431Z,50.62
2018-06-18T11:19:58.459Z,51.31
2018-06-18T11:20:58.475Z,51.79
2018-06-18T11:21:58.574Z,52.34
2018-06-18T11:22:58.558Z,51.79
2018-06-18T11:23:58.565Z,51.91
2018-06-18T11:24:58.590Z,51.59
2018-06-18T11:25:58.601Z,52.37
2018-06-18T11:26:58.651Z,52.28
2018-06-18T11:27:58.661Z,51.14
2018-06-18T11:28:58.674Z,50.65
2018-06-18T11:29:58.718Z,50.56
2018-06-18T11:30:58.722Z,51.89
2018-06-18T11:31:58.748Z,51.50
2018-06-18T11:32:58.780Z,51.40
2018-06-18T11:33:58.801Z,50.36
2018-06-18T11:34:58.887Z,50.48
2018-06-18T11:35:58.854Z,49.99
2018-06-18T11:36:58.864Z,50.74
2018-06-18T11:37:58.913Z,51.31
2018-06-18T11:38:58.920Z,52.44
2018-06-18T11:39:58.941Z,52.47
2018-06-18T11:40:58.974Z,53.00
2018-06-18T11:41:59.054Z,53.02
2018-06-18T11:42:59.014Z,52.47
2018-06-18T11:43:59.060Z,52.40
2018-06-18T11:44:59.062Z,51.72
2018-06-18T11:45:59.085Z,51.33
2018-06-18T11:46:59.121Z,50.38
2018-06-18T11:47:59.211Z,51.16
2018-06-18T11:48:59.161Z,51.62
2018-06-18T11:49:59.184Z,51.33
2018-06-18T11:50:59.206Z,51.91
2018-06-18T11:51:59.238Z,51.43
2018-06-18T11:52:59.261Z,51.53
2018-06-18T11:53:59.278Z,52.37
2018-06-18T11:54:59.303Z,52.64
2018-06-18T11:55:59.348Z,52.28
2018-06-18T11:56:59.355Z,51.89
2018-06-18T11:57:59.382Z,51.75
2018-06-18T11:58:59.401Z,51.65
2018-06-18T11:59:59.424Z,51.53
2018-06-18T12:00:59.459Z,51.72
2018-06-18T12:01:59.516Z,51.33
2018-06-18T12:02:59.502Z,51.62
2018-06-18T12:03:59.535Z,51.23
2018-06-18T12:04:59.550Z,50.56
2018-06-18T12:05:59.584Z,51.23
2018-06-18T12:06:59.635Z,51.43
2018-06-18T12:07:59.624Z,51.43
2018-06-18T12:08:59.652Z,50.46
2018-06-18T12:09:59.755Z,51.40
2018-06-18T12:10:59.700Z,52.44
2018-06-18T12:11:59.726Z,52.73
2018-06-18T12:12:59.768Z,53.31
2018-06-18T12:13:59.767Z,53.09
2018-06-18T12:14:59.797Z,53.22
2018-06-18T12:15:59.820Z,53.00
2018-06-18T12:16:59.840Z,53.31
2018-06-18T12:17:59.870Z,53.61
2018-06-18T12:18:59.907Z,54.38
2018-06-18T12:19:59.920Z,54.19
2018-06-18T12:20:59.951Z,53.31
2018-06-18T12:21:59.964Z,53.02
2018-06-18T12:23:00.004Z,53.22
2018-06-18T12:24:00.012Z,52.86
2018-06-18T12:25:00.035Z,53.02
2018-06-18T12:26:00.059Z,53.15
2018-06-18T12:27:00.080Z,52.76
2018-06-18T12:28:00.111Z,53.47
2018-06-18T12:29:00.129Z,52.20
2018-06-18T12:30:00.156Z,51.91
2018-06-18T12:31:00.202Z,52.59
2018-06-18T12:32:00.204Z,51.35
2018-06-18T12:33:00.234Z,51.06
2018-06-18T12:34:00.251Z,51.33
2018-06-18T12:35:00.275Z,52.20
2018-06-18T12:36:00.300Z,52.50
2018-06-18T12:37:00.323Z,51.84
2018-06-18T12:38:00.345Z,51.09
2018-06-18T12:39:00.380Z,51.28
2018-06-18T12:40:00.396Z,50.34
2018-06-18T12:41:00.428Z,50.31
2018-06-18T12:42:00.448Z,50.63
2018-06-18T12:43:00.470Z,50.58
2018-06-18T12:44:00.522Z,50.74
2018-06-18T12:45:00.511Z,51.04
2018-06-18T12:46:00.544Z,51.72
2018-06-18T12:47:00.661Z,52.40
2018-06-18T12:48:00.600Z,51.16
2018-06-18T12:49:00.640Z,50.60
2018-06-18T12:50:00.642Z,50.70
2018-06-18T12:51:00.667Z,49.76
2018-06-18T12:52:00.688Z,48.90
2018-06-18T12:53:00.712Z,49.07